ایروان, ارمنستان

12:18 PM AMT on سپتامبر 23, 2014 (GMT +0400)
Zvartnots | Change Station
CLOSE
Current Station
Airport
Location: Zvartnots,
Elevation: 2838 ft
Nearby Weather Stations

Elev 2838 ft 40.15 °N, 44.40 °E | Updated 18 minutes ago

Partly Cloudy
ابرهاى پراكنده
75 °F
Feels Like 75 °F
N
4
باد متغير باد from جنوب

امروز
High -- | Low -- °F
--% Chance of Precip.
دیروز
High -- | Low -- °F
Precip. -- در
6:50 AM 6:58 PM
Waning Crescent, 1% visible
فشار 29.92 در
ديد 6.2 مايل، ميل (در برابر كيلومتر
ابری Few 10000 ft
قطره شبنم 43 °F
رطوبت 31%
بارش باران 0.00 در
برف عمیق Not available.
مادون قرمز 6 out of 12
Pollen Not available.
تمیزی هوا Not available.
Flu Activity Not available.
METAR UDYZ 230800Z 17002MPS 150V210 9999 FEW100 24/06 Q1013 R09/010070 NOSIG

More Conditions Fewer Conditions

فشار 29.92 در
ديد 6.2 مايل، ميل (در برابر كيلومتر
ابری Few 10000 ft
قطره شبنم 43 °F
رطوبت 31%
بارش باران 0.00 در
برف عمیق Not available.
مادون قرمز 6 out of 12
Pollen Not available.
تمیزی هوا Not available.
Flu Activity Not available.
METAR UDYZ 230800Z 17002MPS 150V210 9999 FEW100 24/06 Q1013 R09/010070 NOSIG

More Conditions Fewer Conditions

10-Day Weather Forecast

Almanac

ستاره شناسی

Sep. 23, 2014 Rise Set
وقت حقیقی 6:50 AM AMT 6:58 PM AMT
تاریک و روشن اجتماعی 6:23 AM AMT 7:25 PM AMT
تاریک روشن دریایی 5:51 AM AMT 7:56 PM AMT
شفق و فلق نجومی 5:19 AM AMT 8:28 PM AMT
ماه 5:53 AM AMT 6:25 PM AMT
میزان روشنایی روز 13h 01m
طول روز
12h 07m
Tomorrow will be 2m 37s shorter.
Waning Crescent, 1% of the Moon is Illuminated
امروز
Waning Crescent
Sep 24
New
Oct 1
ربع اول
Oct 8
ماه کامل
Oct 15
ربع آخر

Yesterday's Extremes

Country Highs Country Lows

Community

WunderPhotos

Upload Photos

1,755,608 photos uploaded!

Nearby

تمیزی هوا

Not available.

عمق برف

Not available.

Earthquake Activity

شهر Distance Mag. Time & Date
No recent earthquake activity has been reported nearby.
Minimum magnitude displayed is 2.5.

Coastal Water Temperatures

منطقه درجه حرارت
No Stations Reporting

Nearby Weather Stations